EZY42VZ EGKK-LPMA
Flight info
| Callsign | EZY42VZ |
|---|---|
| Flight time | 3h 33m |
| Altitude | 35000 |
| Route | IMVUR N63 SAM M195 LORKU DCT POZOF DCT LOTEE DCT PINEK DCT VERAM DCT TELMU DCT PECKY DCT LIDRO |
| Aircraft | A21N/M-SDE2E3FGHIJ1RWXYZ/LB1G1 |
Departure
| Time | 2026-05-07 11:23 |
|---|---|
| Airport | London Gatwick Airport (EGKK) |
Arrival
| Time | 2026-05-07 14:56 |
|---|---|
| Airport | Cristiano Ronaldo International Airport (LPMA) |
| Time | Latitude | Longitude | Altitude | Speed | Heading |
|---|---|---|---|---|---|
| 2026-05-07 10:19 | 51.15466 | -0.17089 | 210 ft | 0 kts | 348° |
| 2026-05-07 10:24 | 51.15465 | -0.17089 | 210 ft | 0 kts | 348° |
| 2026-05-07 10:59 | 51.15464 | -0.17089 | 210 ft | 0 kts | 348° |
| 2026-05-07 11:07 | 51.15460 | -0.17088 | 212 ft | 2 kts | 348° |
| 2026-05-07 11:07 | 51.15444 | -0.17079 | 215 ft | 2 kts | 329° |
| 2026-05-07 11:08 | 51.15431 | -0.17062 | 213 ft | 2 kts | 306° |
| 2026-05-07 11:08 | 51.15424 | -0.17039 | 210 ft | 2 kts | 279° |
| 2026-05-07 11:08 | 51.15424 | -0.17014 | 210 ft | 2 kts | 261° |
| 2026-05-07 11:08 | 51.15424 | -0.17009 | 210 ft | 0 kts | 259° |
| 2026-05-07 11:09 | 51.15424 | -0.17008 | 210 ft | 0 kts | 259° |
| 2026-05-07 11:11 | 51.15424 | -0.17011 | 210 ft | 1 kts | 259° |
| 2026-05-07 11:11 | 51.15423 | -0.17021 | 210 ft | 2 kts | 259° |
| 2026-05-07 11:11 | 51.15419 | -0.17053 | 210 ft | 4 kts | 258° |
| 2026-05-07 11:12 | 51.15411 | -0.17115 | 210 ft | 7 kts | 257° |
| 2026-05-07 11:12 | 51.15389 | -0.17192 | 213 ft | 8 kts | 250° |
| 2026-05-07 11:12 | 51.15369 | -0.17285 | 212 ft | 10 kts | 252° |
| 2026-05-07 11:12 | 51.15345 | -0.17356 | 216 ft | 5 kts | 204° |
| 2026-05-07 11:13 | 51.15323 | -0.17373 | 213 ft | 6 kts | 210° |
| 2026-05-07 11:13 | 51.15300 | -0.17434 | 215 ft | 8 kts | 257° |
| 2026-05-07 11:13 | 51.15288 | -0.17528 | 210 ft | 10 kts | 257° |
| 2026-05-07 11:13 | 51.15276 | -0.17644 | 210 ft | 12 kts | 257° |
| 2026-05-07 11:14 | 51.15256 | -0.17782 | 214 ft | 14 kts | 257° |
| 2026-05-07 11:14 | 51.15233 | -0.17943 | 214 ft | 16 kts | 258° |
| 2026-05-07 11:14 | 51.15209 | -0.18124 | 210 ft | 18 kts | 258° |
| 2026-05-07 11:14 | 51.15188 | -0.18325 | 215 ft | 19 kts | 262° |
| 2026-05-07 11:15 | 51.15156 | -0.18543 | 213 ft | 21 kts | 257° |
| 2026-05-07 11:15 | 51.15124 | -0.18782 | 214 ft | 23 kts | 258° |
| 2026-05-07 11:15 | 51.15089 | -0.19039 | 214 ft | 25 kts | 258° |
| 2026-05-07 11:15 | 51.15052 | -0.19309 | 215 ft | 25 kts | 258° |
| 2026-05-07 11:16 | 51.15014 | -0.19588 | 215 ft | 26 kts | 257° |
| 2026-05-07 11:16 | 51.14974 | -0.19876 | 210 ft | 27 kts | 257° |
| 2026-05-07 11:16 | 51.14933 | -0.20172 | 211 ft | 28 kts | 257° |
| 2026-05-07 11:16 | 51.14891 | -0.20477 | 210 ft | 29 kts | 257° |
| 2026-05-07 11:17 | 51.14853 | -0.20747 | 212 ft | 21 kts | 257° |
| 2026-05-07 11:17 | 51.14822 | -0.20975 | 212 ft | 21 kts | 258° |
| 2026-05-07 11:17 | 51.14783 | -0.21209 | 216 ft | 22 kts | 256° |
| 2026-05-07 11:17 | 51.14772 | -0.21278 | 210 ft | 0 kts | 256° |
| 2026-05-07 11:18 | 51.14769 | -0.21296 | 218 ft | 3 kts | 256° |
| 2026-05-07 11:18 | 51.14762 | -0.21341 | 212 ft | 5 kts | 256° |
| 2026-05-07 11:18 | 51.14739 | -0.21397 | 210 ft | 7 kts | 212° |
| 2026-05-07 11:18 | 51.14688 | -0.21393 | 212 ft | 8 kts | 148° |
| 2026-05-07 11:19 | 51.14635 | -0.21340 | 210 ft | 10 kts | 164° |
| 2026-05-07 11:19 | 51.14615 | -0.21331 | 213 ft | 0 kts | 163° |
| 2026-05-07 11:21 | 51.14603 | -0.21325 | 211 ft | 3 kts | 163° |
| 2026-05-07 11:21 | 51.14573 | -0.21308 | 213 ft | 6 kts | 150° |
| 2026-05-07 11:21 | 51.14533 | -0.21257 | 211 ft | 9 kts | 131° |
| 2026-05-07 11:22 | 51.14527 | -0.21143 | 215 ft | 16 kts | 76° |
| 2026-05-07 11:22 | 51.14602 | -0.20605 | 218 ft | 85 kts | 78° |
| 2026-05-07 11:22 | 51.14771 | -0.19363 | 218 ft | 142 kts | 77° |
| 2026-05-07 11:22 | 51.15004 | -0.17611 | 391 ft | 168 kts | 78° |
| 2026-05-07 11:23 | 51.15242 | -0.15831 | 1163 ft | 163 kts | 77° |
| 2026-05-07 11:23 | 51.15456 | -0.14020 | 1807 ft | 168 kts | 76° |
| 2026-05-07 11:23 | 51.15658 | -0.12186 | 2460 ft | 168 kts | 77° |
| 2026-05-07 11:23 | 51.15899 | -0.10399 | 3100 ft | 167 kts | 69° |
| 2026-05-07 11:24 | 51.16235 | -0.08536 | 3599 ft | 182 kts | 71° |
| 2026-05-07 11:24 | 51.16749 | -0.06660 | 4015 ft | 194 kts | 50° |
| 2026-05-07 11:24 | 51.17827 | -0.05328 | 4518 ft | 203 kts | 20° |
| 2026-05-07 11:24 | 51.19252 | -0.05088 | 4985 ft | 216 kts | 352° |
| 2026-05-07 11:25 | 51.20751 | -0.05676 | 5548 ft | 225 kts | 338° |
| 2026-05-07 11:25 | 51.22041 | -0.07090 | 6223 ft | 229 kts | 310° |
| 2026-05-07 11:25 | 51.22768 | -0.09400 | 6740 ft | 245 kts | 283° |
| 2026-05-07 11:25 | 51.22726 | -0.12224 | 7066 ft | 265 kts | 262° |
| 2026-05-07 11:26 | 51.22330 | -0.15140 | 7639 ft | 273 kts | 259° |
| 2026-05-07 11:26 | 51.21915 | -0.18111 | 8394 ft | 276 kts | 260° |
| 2026-05-07 11:26 | 51.21522 | -0.21121 | 9197 ft | 279 kts | 260° |
| 2026-05-07 11:26 | 51.21140 | -0.24192 | 9967 ft | 284 kts | 260° |
| 2026-05-07 11:27 | 51.20765 | -0.27296 | 10657 ft | 288 kts | 260° |
| 2026-05-07 11:27 | 51.20389 | -0.30447 | 11405 ft | 290 kts | 260° |
| 2026-05-07 11:27 | 51.20012 | -0.33625 | 12148 ft | 293 kts | 260° |
| 2026-05-07 11:27 | 51.19617 | -0.36829 | 12923 ft | 295 kts | 259° |
| 2026-05-07 11:28 | 51.19196 | -0.40033 | 13701 ft | 296 kts | 259° |
| 2026-05-07 11:28 | 51.18773 | -0.43260 | 14405 ft | 298 kts | 258° |
| 2026-05-07 11:28 | 51.18346 | -0.46495 | 15087 ft | 299 kts | 258° |
| 2026-05-07 11:28 | 51.17915 | -0.49765 | 15719 ft | 303 kts | 258° |
| 2026-05-07 11:29 | 51.17447 | -0.53049 | 16342 ft | 307 kts | 253° |
| 2026-05-07 11:29 | 51.16687 | -0.56287 | 16770 ft | 318 kts | 248° |
| 2026-05-07 11:29 | 51.15797 | -0.59608 | 17045 ft | 334 kts | 247° |
| 2026-05-07 11:29 | 51.14858 | -0.63081 | 17284 ft | 350 kts | 247° |
| 2026-05-07 11:30 | 51.13888 | -0.66694 | 17686 ft | 359 kts | 247° |
| 2026-05-07 11:30 | 51.12901 | -0.70370 | 18300 ft | 362 kts | 247° |
| 2026-05-07 11:30 | 51.11908 | -0.74059 | 18873 ft | 363 kts | 247° |
| 2026-05-07 11:30 | 51.10910 | -0.77772 | 19393 ft | 366 kts | 247° |
| 2026-05-07 11:31 | 51.09905 | -0.81512 | 19909 ft | 369 kts | 247° |
| 2026-05-07 11:31 | 51.08896 | -0.85280 | 20410 ft | 372 kts | 247° |
| 2026-05-07 11:31 | 51.07878 | -0.89065 | 20933 ft | 374 kts | 247° |
| 2026-05-07 11:31 | 51.06847 | -0.92877 | 21451 ft | 376 kts | 247° |
| 2026-05-07 11:32 | 51.04769 | -1.00572 | 22474 ft | 381 kts | 247° |
| 2026-05-07 11:32 | 51.03717 | -1.04447 | 22962 ft | 383 kts | 246° |
| 2026-05-07 11:32 | 51.02654 | -1.08346 | 23449 ft | 386 kts | 246° |
| 2026-05-07 11:33 | 51.01588 | -1.12284 | 23875 ft | 389 kts | 247° |
| 2026-05-07 11:33 | 51.00514 | -1.16238 | 24293 ft | 391 kts | 246° |
| 2026-05-07 11:33 | 50.99426 | -1.20213 | 24704 ft | 394 kts | 246° |
| 2026-05-07 11:33 | 50.98331 | -1.24208 | 25112 ft | 396 kts | 246° |
| 2026-05-07 11:34 | 50.97229 | -1.28226 | 25496 ft | 398 kts | 246° |
| 2026-05-07 11:34 | 50.96001 | -1.32175 | 25874 ft | 401 kts | 238° |
| 2026-05-07 11:34 | 50.94259 | -1.35627 | 26232 ft | 404 kts | 224° |
| 2026-05-07 11:34 | 50.92028 | -1.38357 | 26589 ft | 407 kts | 214° |
| 2026-05-07 11:35 | 50.89646 | -1.40798 | 26945 ft | 409 kts | 213° |
| 2026-05-07 11:35 | 50.87236 | -1.43233 | 27298 ft | 412 kts | 214° |
| 2026-05-07 11:35 | 50.84826 | -1.45693 | 27637 ft | 414 kts | 214° |
| 2026-05-07 11:35 | 50.82409 | -1.48182 | 27978 ft | 416 kts | 214° |
| 2026-05-07 11:36 | 50.79985 | -1.50688 | 28309 ft | 417 kts | 214° |
| 2026-05-07 11:36 | 50.77541 | -1.53212 | 28635 ft | 419 kts | 214° |
| 2026-05-07 11:36 | 50.75096 | -1.55743 | 28952 ft | 421 kts | 214° |
| 2026-05-07 11:36 | 50.72640 | -1.58284 | 29267 ft | 423 kts | 214° |
| 2026-05-07 11:37 | 50.70174 | -1.60827 | 29571 ft | 425 kts | 214° |
| 2026-05-07 11:37 | 50.67687 | -1.63400 | 29873 ft | 427 kts | 214° |
| 2026-05-07 11:37 | 50.65202 | -1.65963 | 30156 ft | 429 kts | 214° |
| 2026-05-07 11:37 | 50.62689 | -1.68542 | 30416 ft | 431 kts | 214° |
| 2026-05-07 11:38 | 50.60179 | -1.71123 | 30662 ft | 432 kts | 214° |
| 2026-05-07 11:38 | 50.57655 | -1.73715 | 30908 ft | 434 kts | 214° |
| 2026-05-07 11:38 | 50.55152 | -1.76265 | 31152 ft | 435 kts | 214° |
| 2026-05-07 11:38 | 50.52601 | -1.78867 | 31386 ft | 437 kts | 214° |
| 2026-05-07 11:39 | 50.50051 | -1.81473 | 31604 ft | 439 kts | 214° |
| 2026-05-07 11:39 | 50.47486 | -1.84087 | 31835 ft | 440 kts | 214° |
| 2026-05-07 11:39 | 50.44924 | -1.86698 | 32130 ft | 439 kts | 214° |
| 2026-05-07 11:39 | 50.42360 | -1.89310 | 32436 ft | 438 kts | 214° |
| 2026-05-07 11:40 | 50.39810 | -1.91901 | 32724 ft | 437 kts | 214° |
| 2026-05-07 11:40 | 50.37258 | -1.94488 | 32990 ft | 437 kts | 214° |
| 2026-05-07 11:40 | 50.34707 | -1.97067 | 33275 ft | 436 kts | 214° |
| 2026-05-07 11:40 | 50.32167 | -1.99639 | 33512 ft | 435 kts | 214° |
| 2026-05-07 11:41 | 50.29622 | -2.02212 | 33752 ft | 435 kts | 214° |
| 2026-05-07 11:41 | 50.27084 | -2.04773 | 33985 ft | 434 kts | 214° |
| 2026-05-07 11:41 | 50.24548 | -2.07329 | 34183 ft | 433 kts | 214° |
| 2026-05-07 11:41 | 50.22004 | -2.09846 | 34336 ft | 434 kts | 213° |
| 2026-05-07 11:42 | 50.19443 | -2.12334 | 34501 ft | 434 kts | 213° |
| 2026-05-07 11:42 | 50.16873 | -2.14825 | 34651 ft | 434 kts | 213° |
| 2026-05-07 11:42 | 50.14318 | -2.17306 | 34796 ft | 434 kts | 213° |
| 2026-05-07 11:42 | 50.11749 | -2.19807 | 34935 ft | 434 kts | 213° |
| 2026-05-07 11:43 | 50.09184 | -2.22292 | 35064 ft | 435 kts | 213° |
| 2026-05-07 11:43 | 50.04045 | -2.27284 | 35090 ft | 435 kts | 213° |
| 2026-05-07 11:44 | 49.98912 | -2.32221 | 35063 ft | 435 kts | 212° |
| 2026-05-07 11:44 | 49.93724 | -2.37104 | 35054 ft | 435 kts | 208° |
| 2026-05-07 11:45 | 49.88225 | -2.41085 | 35060 ft | 436 kts | 205° |
| 2026-05-07 11:45 | 49.82691 | -2.44923 | 35052 ft | 436 kts | 205° |
| 2026-05-07 11:46 | 49.77166 | -2.48765 | 35053 ft | 436 kts | 205° |
| 2026-05-07 11:46 | 49.71630 | -2.52623 | 35054 ft | 437 kts | 205° |
| 2026-05-07 11:47 | 49.66142 | -2.56437 | 35049 ft | 436 kts | 205° |
| 2026-05-07 11:47 | 49.60610 | -2.60270 | 35053 ft | 435 kts | 205° |
| 2026-05-07 11:48 | 49.55084 | -2.64065 | 35054 ft | 436 kts | 205° |
| 2026-05-07 11:48 | 49.49563 | -2.67858 | 35053 ft | 436 kts | 205° |
| 2026-05-07 11:49 | 49.44032 | -2.71656 | 35051 ft | 435 kts | 205° |
| 2026-05-07 11:49 | 49.38510 | -2.75432 | 35050 ft | 435 kts | 205° |
| 2026-05-07 11:50 | 49.32998 | -2.79184 | 35046 ft | 434 kts | 205° |
| 2026-05-07 11:50 | 49.27486 | -2.82941 | 35047 ft | 433 kts | 205° |
| 2026-05-07 11:51 | 49.21983 | -2.86694 | 35047 ft | 433 kts | 205° |
| 2026-05-07 11:51 | 49.16474 | -2.90435 | 35040 ft | 433 kts | 205° |
| 2026-05-07 11:52 | 49.10971 | -2.94153 | 35035 ft | 433 kts | 205° |
| 2026-05-07 11:52 | 49.05476 | -2.97865 | 35031 ft | 432 kts | 205° |
| 2026-05-07 11:53 | 48.99999 | -3.01557 | 35034 ft | 429 kts | 204° |
| 2026-05-07 11:53 | 48.94535 | -3.05220 | 35033 ft | 429 kts | 204° |
| 2026-05-07 11:54 | 48.89066 | -3.08882 | 35028 ft | 429 kts | 204° |
| 2026-05-07 11:54 | 48.83606 | -3.12530 | 35032 ft | 429 kts | 204° |
| 2026-05-07 11:55 | 48.78193 | -3.16143 | 35028 ft | 429 kts | 204° |
| 2026-05-07 11:55 | 48.72742 | -3.19779 | 35019 ft | 428 kts | 204° |
| 2026-05-07 11:56 | 48.67289 | -3.23389 | 35015 ft | 428 kts | 204° |
| 2026-05-07 11:56 | 48.61826 | -3.27004 | 35022 ft | 428 kts | 204° |
| 2026-05-07 11:57 | 48.56375 | -3.30601 | 35025 ft | 427 kts | 204° |
| 2026-05-07 11:57 | 48.50922 | -3.34190 | 35011 ft | 427 kts | 204° |
| 2026-05-07 11:58 | 48.45480 | -3.37774 | 35009 ft | 427 kts | 204° |
| 2026-05-07 11:58 | 48.40026 | -3.41351 | 35001 ft | 428 kts | 204° |
| 2026-05-07 11:59 | 48.34576 | -3.44911 | 35011 ft | 427 kts | 204° |
| 2026-05-07 11:59 | 48.30044 | -3.47853 | 35001 ft | 427 kts | 204° |
| 2026-05-07 12:00 | 48.24591 | -3.51434 | 34997 ft | 427 kts | 204° |
| 2026-05-07 12:00 | 48.19139 | -3.54959 | 34994 ft | 427 kts | 203° |
| 2026-05-07 12:01 | 48.13679 | -3.58499 | 35005 ft | 427 kts | 204° |
| 2026-05-07 12:01 | 48.08232 | -3.62035 | 35006 ft | 428 kts | 203° |
| 2026-05-07 12:02 | 48.02779 | -3.65534 | 34995 ft | 427 kts | 203° |
| 2026-05-07 12:02 | 47.97330 | -3.69058 | 35007 ft | 427 kts | 204° |
| 2026-05-07 12:03 | 47.91881 | -3.72573 | 35005 ft | 427 kts | 203° |
| 2026-05-07 12:03 | 47.86429 | -3.76055 | 35006 ft | 426 kts | 203° |
| 2026-05-07 12:04 | 47.80990 | -3.79543 | 35003 ft | 426 kts | 203° |
| 2026-05-07 12:04 | 47.75547 | -3.83023 | 35003 ft | 426 kts | 203° |
| 2026-05-07 12:05 | 47.70101 | -3.86476 | 35009 ft | 426 kts | 203° |
| 2026-05-07 12:05 | 47.64641 | -3.89928 | 35009 ft | 426 kts | 203° |
| 2026-05-07 12:06 | 47.59231 | -3.93361 | 35008 ft | 426 kts | 204° |
| 2026-05-07 12:06 | 47.53752 | -3.96841 | 35005 ft | 425 kts | 203° |
| 2026-05-07 12:07 | 47.48346 | -4.00263 | 35012 ft | 426 kts | 203° |
| 2026-05-07 12:07 | 47.42906 | -4.03707 | 35010 ft | 425 kts | 203° |
| 2026-05-07 12:08 | 47.37455 | -4.07102 | 35016 ft | 425 kts | 203° |
| 2026-05-07 12:08 | 47.32010 | -4.10507 | 35014 ft | 425 kts | 203° |
| 2026-05-07 12:09 | 47.26570 | -4.13895 | 35014 ft | 424 kts | 203° |
| 2026-05-07 12:09 | 47.21128 | -4.17298 | 35019 ft | 424 kts | 203° |
| 2026-05-07 12:10 | 47.15699 | -4.20687 | 35020 ft | 425 kts | 203° |
| 2026-05-07 12:10 | 47.10254 | -4.24066 | 35017 ft | 425 kts | 203° |
| 2026-05-07 12:11 | 47.04832 | -4.27518 | 35022 ft | 425 kts | 205° |
| 2026-05-07 12:11 | 46.99473 | -4.31178 | 35020 ft | 425 kts | 205° |
| 2026-05-07 12:12 | 46.94126 | -4.34829 | 35018 ft | 424 kts | 205° |
| 2026-05-07 12:12 | 46.88770 | -4.38485 | 35017 ft | 424 kts | 205° |
| 2026-05-07 12:13 | 46.83409 | -4.42135 | 35018 ft | 425 kts | 205° |
| 2026-05-07 12:13 | 46.78045 | -4.45768 | 35021 ft | 425 kts | 205° |
| 2026-05-07 12:14 | 46.72675 | -4.49391 | 35022 ft | 425 kts | 205° |
| 2026-05-07 12:14 | 46.67301 | -4.53007 | 35019 ft | 426 kts | 205° |
| 2026-05-07 12:15 | 46.61933 | -4.56638 | 35020 ft | 426 kts | 205° |
| 2026-05-07 12:15 | 46.56584 | -4.60241 | 35020 ft | 426 kts | 205° |
| 2026-05-07 12:16 | 46.51197 | -4.63860 | 35019 ft | 427 kts | 205° |
| 2026-05-07 12:16 | 46.45805 | -4.67474 | 35014 ft | 427 kts | 205° |
| 2026-05-07 12:17 | 46.40406 | -4.71073 | 35011 ft | 427 kts | 205° |
| 2026-05-07 12:17 | 46.35005 | -4.74676 | 35013 ft | 428 kts | 205° |
| 2026-05-07 12:18 | 46.29589 | -4.78280 | 35013 ft | 428 kts | 205° |
| 2026-05-07 12:18 | 46.24173 | -4.81872 | 35013 ft | 429 kts | 205° |
| 2026-05-07 12:19 | 46.18754 | -4.85476 | 35007 ft | 429 kts | 205° |
| 2026-05-07 12:19 | 46.13328 | -4.89061 | 35006 ft | 429 kts | 205° |
| 2026-05-07 12:20 | 46.07891 | -4.92648 | 35007 ft | 430 kts | 205° |
| 2026-05-07 12:20 | 46.02451 | -4.96223 | 35007 ft | 430 kts | 205° |
| 2026-05-07 12:21 | 45.97000 | -4.99800 | 35003 ft | 430 kts | 205° |
| 2026-05-07 12:21 | 45.91551 | -5.03374 | 35002 ft | 430 kts | 205° |
| 2026-05-07 12:22 | 45.86090 | -5.06951 | 35002 ft | 431 kts | 205° |
| 2026-05-07 12:22 | 45.80621 | -5.10517 | 34996 ft | 432 kts | 205° |
| 2026-05-07 12:23 | 45.75147 | -5.14088 | 34999 ft | 433 kts | 205° |
| 2026-05-07 12:23 | 45.69666 | -5.17655 | 34993 ft | 433 kts | 205° |
| 2026-05-07 12:24 | 45.64177 | -5.21185 | 34989 ft | 433 kts | 205° |
| 2026-05-07 12:24 | 45.58679 | -5.24726 | 34991 ft | 433 kts | 205° |
| 2026-05-07 12:25 | 45.53182 | -5.28284 | 34993 ft | 434 kts | 205° |
| 2026-05-07 12:25 | 45.47720 | -5.31806 | 34986 ft | 434 kts | 205° |
| 2026-05-07 12:26 | 45.42215 | -5.35342 | 34984 ft | 434 kts | 205° |
| 2026-05-07 12:26 | 45.36702 | -5.38862 | 34983 ft | 434 kts | 205° |
| 2026-05-07 12:27 | 45.31191 | -5.42386 | 34979 ft | 434 kts | 205° |
| 2026-05-07 12:27 | 45.25684 | -5.45935 | 34979 ft | 434 kts | 205° |
| 2026-05-07 12:28 | 45.20156 | -5.49442 | 34976 ft | 435 kts | 205° |
| 2026-05-07 12:28 | 45.14619 | -5.52937 | 34971 ft | 436 kts | 205° |
| 2026-05-07 12:29 | 45.09105 | -5.56477 | 34971 ft | 436 kts | 205° |
| 2026-05-07 12:29 | 45.03572 | -5.60003 | 34972 ft | 437 kts | 205° |
| 2026-05-07 12:30 | 44.98021 | -5.63500 | 34962 ft | 437 kts | 205° |
| 2026-05-07 12:30 | 44.92472 | -5.66998 | 34961 ft | 437 kts | 205° |
| 2026-05-07 12:31 | 44.86909 | -5.70509 | 34958 ft | 438 kts | 205° |
| 2026-05-07 12:31 | 44.81346 | -5.73997 | 34955 ft | 438 kts | 205° |
| 2026-05-07 12:32 | 44.75767 | -5.77489 | 34954 ft | 439 kts | 205° |
| 2026-05-07 12:32 | 44.70197 | -5.80981 | 34948 ft | 439 kts | 205° |
| 2026-05-07 12:33 | 44.62288 | -5.87325 | 34943 ft | 436 kts | 218° |
| 2026-05-07 12:33 | 44.57464 | -5.92412 | 34940 ft | 438 kts | 218° |
| 2026-05-07 12:34 | 44.52588 | -5.97490 | 34940 ft | 438 kts | 218° |
| 2026-05-07 12:34 | 44.47688 | -6.02563 | 34939 ft | 438 kts | 218° |
| 2026-05-07 12:35 | 44.42779 | -6.07628 | 34933 ft | 438 kts | 218° |
| 2026-05-07 12:35 | 44.37869 | -6.12696 | 34935 ft | 439 kts | 218° |
| 2026-05-07 12:36 | 44.32932 | -6.17757 | 34931 ft | 440 kts | 218° |
| 2026-05-07 12:36 | 44.27998 | -6.22805 | 34923 ft | 441 kts | 218° |
| 2026-05-07 12:37 | 44.23058 | -6.27878 | 34928 ft | 441 kts | 219° |
| 2026-05-07 12:37 | 44.18121 | -6.32948 | 34923 ft | 442 kts | 218° |
| 2026-05-07 12:38 | 44.13159 | -6.38017 | 34922 ft | 442 kts | 218° |
| 2026-05-07 12:38 | 44.08188 | -6.43085 | 34917 ft | 443 kts | 218° |
| 2026-05-07 12:39 | 44.03210 | -6.48148 | 34916 ft | 444 kts | 218° |
| 2026-05-07 12:39 | 43.98248 | -6.53169 | 34916 ft | 445 kts | 218° |
| 2026-05-07 12:40 | 43.93239 | -6.58226 | 34912 ft | 445 kts | 218° |
| 2026-05-07 12:40 | 43.88225 | -6.63285 | 34910 ft | 446 kts | 218° |
| 2026-05-07 12:41 | 43.83202 | -6.68349 | 34906 ft | 446 kts | 218° |
| 2026-05-07 12:41 | 43.78176 | -6.73404 | 34904 ft | 447 kts | 218° |
| 2026-05-07 12:42 | 43.73144 | -6.78451 | 34900 ft | 447 kts | 219° |
| 2026-05-07 12:42 | 43.68100 | -6.83503 | 34901 ft | 448 kts | 219° |
| 2026-05-07 12:43 | 43.63058 | -6.88544 | 34895 ft | 448 kts | 218° |
| 2026-05-07 12:43 | 43.58002 | -6.93581 | 34895 ft | 448 kts | 219° |
| 2026-05-07 12:44 | 43.52949 | -6.98599 | 34892 ft | 448 kts | 218° |
| 2026-05-07 12:44 | 43.47885 | -7.03617 | 34888 ft | 449 kts | 219° |
| 2026-05-07 12:45 | 43.42821 | -7.08639 | 34887 ft | 448 kts | 219° |
| 2026-05-07 12:45 | 43.37752 | -7.13645 | 34883 ft | 449 kts | 219° |
| 2026-05-07 12:46 | 43.32677 | -7.18660 | 34884 ft | 449 kts | 219° |
| 2026-05-07 12:46 | 43.28461 | -7.22808 | 34877 ft | 448 kts | 219° |
| 2026-05-07 12:47 | 43.23393 | -7.27784 | 34876 ft | 448 kts | 219° |
| 2026-05-07 12:47 | 43.18333 | -7.32750 | 34873 ft | 447 kts | 219° |
| 2026-05-07 12:48 | 43.13269 | -7.37707 | 34872 ft | 447 kts | 219° |
| 2026-05-07 12:48 | 43.08211 | -7.42644 | 34864 ft | 446 kts | 219° |
| 2026-05-07 12:49 | 43.03156 | -7.47566 | 34867 ft | 446 kts | 219° |
| 2026-05-07 12:49 | 42.98098 | -7.52482 | 34866 ft | 446 kts | 219° |
| 2026-05-07 12:50 | 42.93044 | -7.57384 | 34870 ft | 446 kts | 219° |
| 2026-05-07 12:50 | 42.87995 | -7.62277 | 34865 ft | 445 kts | 219° |
| 2026-05-07 12:51 | 42.82980 | -7.67113 | 34867 ft | 444 kts | 219° |
| 2026-05-07 12:51 | 42.77905 | -7.72004 | 34869 ft | 444 kts | 219° |
| 2026-05-07 12:52 | 42.72858 | -7.76853 | 34867 ft | 444 kts | 219° |
| 2026-05-07 12:52 | 42.67851 | -7.81662 | 34878 ft | 443 kts | 219° |
| 2026-05-07 12:53 | 42.62821 | -7.86494 | 34864 ft | 443 kts | 219° |
| 2026-05-07 12:53 | 42.57782 | -7.91316 | 34863 ft | 443 kts | 219° |
| 2026-05-07 12:54 | 42.52749 | -7.96123 | 34880 ft | 442 kts | 219° |
| 2026-05-07 12:54 | 42.47718 | -8.00914 | 34870 ft | 442 kts | 220° |
| 2026-05-07 12:55 | 42.42693 | -8.05692 | 34868 ft | 442 kts | 220° |
| 2026-05-07 12:55 | 42.37670 | -8.10465 | 34872 ft | 441 kts | 220° |
| 2026-05-07 12:56 | 42.32637 | -8.15235 | 34864 ft | 442 kts | 220° |
| 2026-05-07 12:56 | 42.27619 | -8.19978 | 34878 ft | 440 kts | 220° |
| 2026-05-07 12:57 | 42.22598 | -8.24711 | 34885 ft | 439 kts | 220° |
| 2026-05-07 12:57 | 42.17595 | -8.29419 | 34888 ft | 438 kts | 220° |
| 2026-05-07 12:58 | 42.12597 | -8.34115 | 34893 ft | 437 kts | 220° |
| 2026-05-07 12:58 | 42.07611 | -8.38785 | 34891 ft | 437 kts | 220° |
| 2026-05-07 12:59 | 42.02631 | -8.43450 | 34891 ft | 435 kts | 220° |
| 2026-05-07 12:59 | 41.97664 | -8.48088 | 34888 ft | 434 kts | 220° |
| 2026-05-07 13:00 | 41.92711 | -8.52706 | 34882 ft | 434 kts | 220° |
| 2026-05-07 13:00 | 41.87753 | -8.57326 | 34878 ft | 433 kts | 221° |
| 2026-05-07 13:01 | 41.82952 | -8.62130 | 34879 ft | 430 kts | 225° |
| 2026-05-07 13:01 | 41.78341 | -8.67208 | 34877 ft | 427 kts | 225° |
| 2026-05-07 13:02 | 41.73742 | -8.72265 | 34882 ft | 428 kts | 225° |
| 2026-05-07 13:02 | 41.69166 | -8.77279 | 34889 ft | 428 kts | 225° |
| 2026-05-07 13:03 | 41.64532 | -8.82345 | 34887 ft | 427 kts | 225° |
| 2026-05-07 13:03 | 41.59965 | -8.87323 | 34884 ft | 426 kts | 225° |
| 2026-05-07 13:04 | 41.55366 | -8.92328 | 34890 ft | 426 kts | 225° |
| 2026-05-07 13:04 | 41.50778 | -8.97314 | 34890 ft | 425 kts | 225° |
| 2026-05-07 13:05 | 41.46188 | -9.02284 | 34888 ft | 425 kts | 225° |
| 2026-05-07 13:05 | 41.41596 | -9.07244 | 34889 ft | 424 kts | 225° |
| 2026-05-07 13:06 | 41.37012 | -9.12187 | 34890 ft | 424 kts | 225° |
| 2026-05-07 13:06 | 41.32438 | -9.17111 | 34895 ft | 423 kts | 225° |
| 2026-05-07 13:07 | 41.27869 | -9.22037 | 34896 ft | 422 kts | 225° |
| 2026-05-07 13:07 | 41.23307 | -9.26939 | 34899 ft | 422 kts | 225° |
| 2026-05-07 13:08 | 41.18738 | -9.31835 | 34895 ft | 421 kts | 225° |
| 2026-05-07 13:08 | 41.14185 | -9.36717 | 34894 ft | 420 kts | 225° |
| 2026-05-07 13:09 | 41.09635 | -9.41580 | 34897 ft | 420 kts | 225° |
| 2026-05-07 13:09 | 41.05092 | -9.46428 | 34903 ft | 419 kts | 224° |
| 2026-05-07 13:10 | 41.00553 | -9.51274 | 34902 ft | 419 kts | 224° |
| 2026-05-07 13:10 | 40.96019 | -9.56106 | 34906 ft | 418 kts | 224° |
| 2026-05-07 13:11 | 40.91473 | -9.60923 | 34903 ft | 418 kts | 224° |
| 2026-05-07 13:11 | 40.86980 | -9.65687 | 34904 ft | 417 kts | 224° |
| 2026-05-07 13:12 | 40.82421 | -9.70508 | 34900 ft | 416 kts | 224° |
| 2026-05-07 13:12 | 40.77904 | -9.75274 | 34910 ft | 416 kts | 224° |
| 2026-05-07 13:13 | 40.73414 | -9.80004 | 34914 ft | 415 kts | 224° |
| 2026-05-07 13:13 | 40.68904 | -9.84746 | 34913 ft | 415 kts | 224° |
| 2026-05-07 13:14 | 40.64396 | -9.89475 | 34914 ft | 414 kts | 224° |
| 2026-05-07 13:14 | 40.59892 | -9.94191 | 34920 ft | 413 kts | 224° |
| 2026-05-07 13:15 | 40.55397 | -9.98898 | 34918 ft | 413 kts | 224° |
| 2026-05-07 13:15 | 40.50896 | -10.03591 | 34921 ft | 412 kts | 224° |
| 2026-05-07 13:16 | 40.46401 | -10.08260 | 34920 ft | 412 kts | 223° |
| 2026-05-07 13:16 | 40.41909 | -10.12919 | 34918 ft | 412 kts | 224° |
| 2026-05-07 13:17 | 40.37429 | -10.17579 | 34917 ft | 411 kts | 224° |
| 2026-05-07 13:17 | 40.32944 | -10.22225 | 34921 ft | 411 kts | 223° |
| 2026-05-07 13:18 | 40.28465 | -10.26856 | 34924 ft | 410 kts | 223° |
| 2026-05-07 13:18 | 40.23987 | -10.31483 | 34928 ft | 409 kts | 223° |
| 2026-05-07 13:19 | 40.19551 | -10.36061 | 34927 ft | 409 kts | 223° |
| 2026-05-07 13:19 | 40.15082 | -10.40667 | 34932 ft | 409 kts | 223° |
| 2026-05-07 13:20 | 40.10621 | -10.45263 | 34929 ft | 408 kts | 223° |
| 2026-05-07 13:20 | 40.06169 | -10.49844 | 34933 ft | 407 kts | 223° |
| 2026-05-07 13:21 | 40.01704 | -10.54409 | 34932 ft | 408 kts | 223° |
| 2026-05-07 13:21 | 39.97245 | -10.58961 | 34935 ft | 407 kts | 223° |
| 2026-05-07 13:22 | 39.92795 | -10.63508 | 34937 ft | 406 kts | 223° |
| 2026-05-07 13:22 | 39.88342 | -10.68047 | 34939 ft | 406 kts | 223° |
| 2026-05-07 13:23 | 39.83901 | -10.72569 | 34938 ft | 405 kts | 223° |
| 2026-05-07 13:23 | 39.79458 | -10.77083 | 34942 ft | 405 kts | 223° |
| 2026-05-07 13:24 | 39.75025 | -10.81578 | 34942 ft | 404 kts | 223° |
| 2026-05-07 13:24 | 39.70588 | -10.86064 | 34939 ft | 404 kts | 223° |
| 2026-05-07 13:25 | 39.66157 | -10.90541 | 34941 ft | 403 kts | 223° |
| 2026-05-07 13:25 | 39.61735 | -10.95001 | 34940 ft | 403 kts | 223° |
| 2026-05-07 13:26 | 39.57310 | -10.99461 | 34944 ft | 402 kts | 223° |
| 2026-05-07 13:26 | 39.52894 | -11.03900 | 34946 ft | 402 kts | 222° |
| 2026-05-07 13:27 | 39.48465 | -11.08327 | 34940 ft | 402 kts | 222° |
| 2026-05-07 13:27 | 39.44048 | -11.12750 | 34947 ft | 401 kts | 222° |
| 2026-05-07 13:28 | 39.39633 | -11.17167 | 34948 ft | 401 kts | 222° |
| 2026-05-07 13:28 | 39.35249 | -11.21543 | 34946 ft | 401 kts | 222° |
| 2026-05-07 13:29 | 39.30838 | -11.25935 | 34942 ft | 400 kts | 222° |
| 2026-05-07 13:29 | 39.26434 | -11.30321 | 34948 ft | 399 kts | 222° |
| 2026-05-07 13:30 | 39.22050 | -11.34695 | 34950 ft | 398 kts | 222° |
| 2026-05-07 13:30 | 39.17662 | -11.39063 | 34952 ft | 398 kts | 222° |
| 2026-05-07 13:31 | 39.13273 | -11.43403 | 34954 ft | 397 kts | 221° |
| 2026-05-07 13:31 | 39.08886 | -11.47728 | 34957 ft | 397 kts | 222° |
| 2026-05-07 13:32 | 39.04515 | -11.52044 | 34951 ft | 396 kts | 221° |
| 2026-05-07 13:32 | 39.00138 | -11.56362 | 34954 ft | 396 kts | 221° |
| 2026-05-07 13:33 | 38.95773 | -11.60667 | 34955 ft | 395 kts | 221° |
| 2026-05-07 13:33 | 38.91407 | -11.64959 | 34958 ft | 395 kts | 221° |
| 2026-05-07 13:34 | 38.85599 | -11.70655 | 34954 ft | 394 kts | 221° |
| 2026-05-07 13:35 | 38.81248 | -11.74910 | 34959 ft | 394 kts | 221° |
| 2026-05-07 13:35 | 38.76878 | -11.79173 | 34960 ft | 394 kts | 221° |
| 2026-05-07 13:36 | 38.72523 | -11.83426 | 34956 ft | 394 kts | 221° |
| 2026-05-07 13:36 | 38.68162 | -11.87675 | 34967 ft | 394 kts | 221° |
| 2026-05-07 13:37 | 38.63834 | -11.91893 | 34958 ft | 393 kts | 221° |
| 2026-05-07 13:37 | 38.59458 | -11.96160 | 34956 ft | 393 kts | 221° |
| 2026-05-07 13:38 | 38.55136 | -12.00355 | 34958 ft | 392 kts | 221° |
| 2026-05-07 13:38 | 38.50760 | -12.04591 | 34967 ft | 392 kts | 221° |
| 2026-05-07 13:39 | 38.46409 | -12.08795 | 34968 ft | 392 kts | 221° |
| 2026-05-07 13:39 | 38.42090 | -12.12970 | 34973 ft | 392 kts | 221° |
| 2026-05-07 13:40 | 38.37734 | -12.17168 | 34963 ft | 392 kts | 221° |
| 2026-05-07 13:40 | 38.33386 | -12.21356 | 34971 ft | 392 kts | 221° |
| 2026-05-07 13:41 | 38.29031 | -12.25536 | 34975 ft | 392 kts | 221° |
| 2026-05-07 13:41 | 38.24678 | -12.29711 | 34965 ft | 392 kts | 220° |
| 2026-05-07 13:42 | 38.20325 | -12.33880 | 34971 ft | 391 kts | 220° |
| 2026-05-07 13:42 | 38.15981 | -12.38037 | 34969 ft | 391 kts | 220° |
| 2026-05-07 13:43 | 38.11628 | -12.42190 | 34965 ft | 391 kts | 220° |
| 2026-05-07 13:43 | 38.07286 | -12.46337 | 34974 ft | 390 kts | 220° |
| 2026-05-07 13:44 | 38.02947 | -12.50470 | 34969 ft | 390 kts | 220° |
| 2026-05-07 13:44 | 37.98609 | -12.54597 | 34973 ft | 389 kts | 220° |
| 2026-05-07 13:45 | 37.94270 | -12.58716 | 34973 ft | 389 kts | 220° |
| 2026-05-07 13:45 | 37.89937 | -12.62822 | 34971 ft | 389 kts | 220° |
| 2026-05-07 13:46 | 37.85605 | -12.66921 | 34971 ft | 388 kts | 220° |
| 2026-05-07 13:46 | 37.81279 | -12.71009 | 34971 ft | 388 kts | 220° |
| 2026-05-07 13:47 | 37.76986 | -12.75061 | 34972 ft | 388 kts | 220° |
| 2026-05-07 13:47 | 37.72661 | -12.79135 | 34976 ft | 387 kts | 220° |
| 2026-05-07 13:48 | 37.68347 | -12.83198 | 34972 ft | 387 kts | 220° |
| 2026-05-07 13:48 | 37.64028 | -12.87247 | 34976 ft | 386 kts | 220° |
| 2026-05-07 13:49 | 37.59714 | -12.91296 | 34974 ft | 386 kts | 220° |
| 2026-05-07 13:49 | 37.55411 | -12.95329 | 34975 ft | 386 kts | 220° |
| 2026-05-07 13:50 | 37.51098 | -12.99362 | 34976 ft | 386 kts | 220° |
| 2026-05-07 13:50 | 37.46786 | -13.03391 | 34980 ft | 386 kts | 220° |
| 2026-05-07 13:51 | 37.42470 | -13.07412 | 34976 ft | 386 kts | 219° |
| 2026-05-07 13:51 | 37.38155 | -13.11428 | 34979 ft | 386 kts | 219° |
| 2026-05-07 13:52 | 37.33835 | -13.15443 | 34979 ft | 386 kts | 219° |
| 2026-05-07 13:52 | 37.29513 | -13.19458 | 34979 ft | 386 kts | 219° |
| 2026-05-07 13:53 | 37.25222 | -13.23442 | 34979 ft | 386 kts | 219° |
| 2026-05-07 13:53 | 37.20901 | -13.27446 | 34982 ft | 386 kts | 219° |
| 2026-05-07 13:54 | 37.16573 | -13.31438 | 34982 ft | 386 kts | 219° |
| 2026-05-07 13:54 | 37.12247 | -13.35431 | 34983 ft | 386 kts | 219° |
| 2026-05-07 13:55 | 37.07921 | -13.39422 | 34980 ft | 386 kts | 219° |
| 2026-05-07 13:55 | 37.03593 | -13.43407 | 34981 ft | 386 kts | 219° |
| 2026-05-07 13:56 | 36.99271 | -13.47378 | 34982 ft | 385 kts | 219° |
| 2026-05-07 13:56 | 36.94946 | -13.51344 | 34985 ft | 385 kts | 218° |
| 2026-05-07 13:57 | 36.90630 | -13.55303 | 34987 ft | 385 kts | 218° |
| 2026-05-07 13:57 | 36.86316 | -13.59251 | 34983 ft | 384 kts | 218° |
| 2026-05-07 13:58 | 36.82002 | -13.63185 | 34987 ft | 384 kts | 218° |
| 2026-05-07 13:58 | 36.77690 | -13.67107 | 34988 ft | 384 kts | 217° |
| 2026-05-07 13:59 | 36.73171 | -13.70667 | 34986 ft | 384 kts | 214° |
| 2026-05-07 13:59 | 36.68611 | -13.74149 | 34986 ft | 384 kts | 214° |
| 2026-05-07 14:00 | 36.64059 | -13.77625 | 34990 ft | 384 kts | 214° |
| 2026-05-07 14:00 | 36.59508 | -13.81097 | 34990 ft | 383 kts | 214° |
| 2026-05-07 14:01 | 36.54957 | -13.84561 | 34989 ft | 383 kts | 214° |
| 2026-05-07 14:01 | 36.50416 | -13.88018 | 34991 ft | 382 kts | 214° |
| 2026-05-07 14:02 | 36.45881 | -13.91468 | 34986 ft | 382 kts | 214° |
| 2026-05-07 14:02 | 36.41341 | -13.94911 | 34990 ft | 382 kts | 214° |
| 2026-05-07 14:03 | 36.36807 | -13.98337 | 34993 ft | 382 kts | 214° |
| 2026-05-07 14:03 | 36.32279 | -14.01770 | 34995 ft | 381 kts | 214° |
| 2026-05-07 14:04 | 36.27755 | -14.05189 | 34995 ft | 381 kts | 214° |
| 2026-05-07 14:04 | 36.23237 | -14.08605 | 34996 ft | 381 kts | 214° |
| 2026-05-07 14:05 | 36.18714 | -14.12020 | 34996 ft | 381 kts | 214° |
| 2026-05-07 14:05 | 36.14191 | -14.15415 | 35001 ft | 380 kts | 214° |
| 2026-05-07 14:06 | 36.09667 | -14.18814 | 35000 ft | 380 kts | 214° |
| 2026-05-07 14:06 | 36.05141 | -14.22208 | 34999 ft | 380 kts | 214° |
| 2026-05-07 14:07 | 36.00620 | -14.25606 | 34999 ft | 380 kts | 213° |
| 2026-05-07 14:07 | 35.96092 | -14.28978 | 34999 ft | 380 kts | 213° |
| 2026-05-07 14:08 | 35.91566 | -14.32332 | 35004 ft | 379 kts | 213° |
| 2026-05-07 14:08 | 35.87053 | -14.35703 | 35004 ft | 379 kts | 213° |
| 2026-05-07 14:09 | 35.82542 | -14.39081 | 35000 ft | 379 kts | 213° |
| 2026-05-07 14:09 | 35.78060 | -14.42417 | 35002 ft | 379 kts | 213° |
| 2026-05-07 14:10 | 35.73542 | -14.45767 | 35000 ft | 379 kts | 213° |
| 2026-05-07 14:10 | 35.69024 | -14.49123 | 35005 ft | 380 kts | 213° |
| 2026-05-07 14:11 | 35.64498 | -14.52473 | 35001 ft | 379 kts | 213° |
| 2026-05-07 14:11 | 35.59979 | -14.55813 | 35007 ft | 379 kts | 213° |
| 2026-05-07 14:12 | 35.55452 | -14.59159 | 35002 ft | 379 kts | 213° |
| 2026-05-07 14:12 | 35.50943 | -14.62516 | 35002 ft | 379 kts | 213° |
| 2026-05-07 14:13 | 35.46431 | -14.65854 | 35003 ft | 379 kts | 213° |
| 2026-05-07 14:13 | 35.41910 | -14.69184 | 35005 ft | 379 kts | 213° |
| 2026-05-07 14:14 | 35.37391 | -14.72510 | 35008 ft | 379 kts | 213° |
| 2026-05-07 14:14 | 35.32872 | -14.75824 | 35010 ft | 378 kts | 213° |
| 2026-05-07 14:15 | 35.28359 | -14.79137 | 35009 ft | 378 kts | 213° |
| 2026-05-07 14:15 | 35.23843 | -14.82447 | 35010 ft | 378 kts | 213° |
| 2026-05-07 14:16 | 35.19328 | -14.85744 | 35010 ft | 378 kts | 213° |
| 2026-05-07 14:16 | 35.14823 | -14.89047 | 35013 ft | 378 kts | 213° |
| 2026-05-07 14:17 | 35.10311 | -14.92332 | 35013 ft | 378 kts | 213° |
| 2026-05-07 14:17 | 35.05792 | -14.95616 | 35010 ft | 378 kts | 213° |
| 2026-05-07 14:18 | 35.01281 | -14.98900 | 35009 ft | 377 kts | 213° |
| 2026-05-07 14:18 | 34.96777 | -15.02181 | 35008 ft | 377 kts | 213° |
| 2026-05-07 14:19 | 34.92276 | -15.05463 | 35010 ft | 377 kts | 213° |
| 2026-05-07 14:19 | 34.87755 | -15.08741 | 35016 ft | 378 kts | 213° |
| 2026-05-07 14:20 | 34.83234 | -15.12002 | 35012 ft | 378 kts | 213° |
| 2026-05-07 14:20 | 34.78743 | -15.15250 | 35015 ft | 378 kts | 213° |
| 2026-05-07 14:21 | 34.74186 | -15.18538 | 35013 ft | 379 kts | 213° |
| 2026-05-07 14:21 | 34.69684 | -15.21781 | 35018 ft | 379 kts | 213° |
| 2026-05-07 14:22 | 34.65150 | -15.25052 | 35010 ft | 379 kts | 213° |
| 2026-05-07 14:22 | 34.60611 | -15.28323 | 35010 ft | 379 kts | 213° |
| 2026-05-07 14:23 | 34.56813 | -15.31055 | 35011 ft | 379 kts | 213° |
| 2026-05-07 14:23 | 34.52296 | -15.34295 | 35013 ft | 380 kts | 213° |
| 2026-05-07 14:24 | 34.47740 | -15.37541 | 35013 ft | 380 kts | 213° |
| 2026-05-07 14:24 | 34.43187 | -15.40813 | 35009 ft | 380 kts | 213° |
| 2026-05-07 14:25 | 34.38659 | -15.44045 | 35014 ft | 375 kts | 213° |
| 2026-05-07 14:25 | 34.34219 | -15.47214 | 34835 ft | 364 kts | 213° |
| 2026-05-07 14:25 | 34.32041 | -15.48767 | 34597 ft | 362 kts | 213° |
| 2026-05-07 14:26 | 34.29880 | -15.50308 | 34363 ft | 360 kts | 213° |
| 2026-05-07 14:26 | 34.27732 | -15.51836 | 34132 ft | 358 kts | 213° |
| 2026-05-07 14:26 | 34.25589 | -15.53372 | 33881 ft | 356 kts | 213° |
| 2026-05-07 14:26 | 34.23460 | -15.54886 | 33618 ft | 354 kts | 213° |
| 2026-05-07 14:27 | 34.21339 | -15.56390 | 33353 ft | 352 kts | 213° |
| 2026-05-07 14:27 | 34.19231 | -15.57883 | 33087 ft | 351 kts | 213° |
| 2026-05-07 14:27 | 34.17130 | -15.59374 | 32824 ft | 349 kts | 213° |
| 2026-05-07 14:27 | 34.15049 | -15.60853 | 32564 ft | 347 kts | 213° |
| 2026-05-07 14:28 | 34.12976 | -15.62328 | 32227 ft | 343 kts | 213° |
| 2026-05-07 14:28 | 34.10933 | -15.63777 | 31797 ft | 339 kts | 213° |
| 2026-05-07 14:28 | 34.08908 | -15.65210 | 31356 ft | 336 kts | 213° |
| 2026-05-07 14:28 | 34.06898 | -15.66634 | 30923 ft | 334 kts | 213° |
| 2026-05-07 14:29 | 34.04908 | -15.68046 | 30506 ft | 330 kts | 213° |
| 2026-05-07 14:29 | 34.02929 | -15.69445 | 30086 ft | 327 kts | 213° |
| 2026-05-07 14:29 | 34.00974 | -15.70825 | 29610 ft | 325 kts | 213° |
| 2026-05-07 14:29 | 33.99035 | -15.72199 | 29152 ft | 322 kts | 213° |
| 2026-05-07 14:30 | 33.97109 | -15.73558 | 28711 ft | 318 kts | 213° |
| 2026-05-07 14:30 | 33.95210 | -15.74904 | 28295 ft | 315 kts | 213° |
| 2026-05-07 14:30 | 33.93361 | -15.76209 | 27890 ft | 311 kts | 214° |
| 2026-05-07 14:30 | 33.91518 | -15.77512 | 27512 ft | 307 kts | 214° |
| 2026-05-07 14:31 | 33.89683 | -15.78804 | 27119 ft | 304 kts | 214° |
| 2026-05-07 14:31 | 33.87865 | -15.80083 | 26714 ft | 302 kts | 214° |
| 2026-05-07 14:31 | 33.86062 | -15.81348 | 26318 ft | 299 kts | 214° |
| 2026-05-07 14:31 | 33.84276 | -15.82609 | 25934 ft | 296 kts | 214° |
| 2026-05-07 14:32 | 33.82526 | -15.83842 | 25568 ft | 294 kts | 214° |
| 2026-05-07 14:32 | 33.80749 | -15.85094 | 25199 ft | 291 kts | 214° |
| 2026-05-07 14:32 | 33.79034 | -15.86302 | 24815 ft | 289 kts | 214° |
| 2026-05-07 14:32 | 33.77298 | -15.87515 | 24430 ft | 288 kts | 214° |
| 2026-05-07 14:33 | 33.75571 | -15.88726 | 24048 ft | 286 kts | 214° |
| 2026-05-07 14:33 | 33.73859 | -15.89931 | 23673 ft | 285 kts | 214° |
| 2026-05-07 14:33 | 33.72148 | -15.91131 | 23251 ft | 284 kts | 214° |
| 2026-05-07 14:33 | 33.70446 | -15.92321 | 22836 ft | 282 kts | 214° |
| 2026-05-07 14:34 | 33.68762 | -15.93505 | 22456 ft | 279 kts | 214° |
| 2026-05-07 14:34 | 33.67089 | -15.94684 | 22071 ft | 279 kts | 214° |
| 2026-05-07 14:34 | 33.65414 | -15.95861 | 21683 ft | 279 kts | 214° |
| 2026-05-07 14:34 | 33.63743 | -15.97032 | 21283 ft | 278 kts | 215° |
| 2026-05-07 14:35 | 33.62076 | -15.98200 | 20937 ft | 277 kts | 215° |
| 2026-05-07 14:35 | 33.60414 | -15.99368 | 20660 ft | 277 kts | 215° |
| 2026-05-07 14:35 | 33.58745 | -16.00530 | 20400 ft | 277 kts | 215° |
| 2026-05-07 14:35 | 33.57078 | -16.01691 | 20155 ft | 277 kts | 215° |
| 2026-05-07 14:36 | 33.55400 | -16.02864 | 19913 ft | 289 kts | 215° |
| 2026-05-07 14:36 | 33.53608 | -16.04115 | 19701 ft | 301 kts | 214° |
| 2026-05-07 14:36 | 33.51794 | -16.05382 | 19463 ft | 302 kts | 215° |
| 2026-05-07 14:36 | 33.49982 | -16.06646 | 19225 ft | 302 kts | 214° |
| 2026-05-07 14:37 | 33.48170 | -16.07908 | 18992 ft | 301 kts | 215° |
| 2026-05-07 14:37 | 33.44542 | -16.10436 | 18518 ft | 301 kts | 215° |
| 2026-05-07 14:37 | 33.42731 | -16.11692 | 18290 ft | 301 kts | 215° |
| 2026-05-07 14:38 | 33.40920 | -16.12951 | 18024 ft | 300 kts | 215° |
| 2026-05-07 14:38 | 33.39123 | -16.14200 | 17756 ft | 298 kts | 215° |
| 2026-05-07 14:38 | 33.37331 | -16.15444 | 17491 ft | 297 kts | 215° |
| 2026-05-07 14:38 | 33.35547 | -16.16680 | 17233 ft | 296 kts | 215° |
| 2026-05-07 14:39 | 33.33770 | -16.17915 | 16971 ft | 295 kts | 215° |
| 2026-05-07 14:39 | 33.32006 | -16.19143 | 16713 ft | 293 kts | 215° |
| 2026-05-07 14:39 | 33.30239 | -16.20371 | 16454 ft | 292 kts | 215° |
| 2026-05-07 14:39 | 33.28482 | -16.21583 | 16202 ft | 291 kts | 215° |
| 2026-05-07 14:40 | 33.26735 | -16.22790 | 15951 ft | 290 kts | 215° |
| 2026-05-07 14:40 | 33.24991 | -16.23999 | 15699 ft | 289 kts | 215° |
| 2026-05-07 14:40 | 33.23277 | -16.25185 | 15452 ft | 288 kts | 215° |
| 2026-05-07 14:40 | 33.21526 | -16.26398 | 15203 ft | 287 kts | 215° |
| 2026-05-07 14:41 | 33.19820 | -16.27576 | 14952 ft | 285 kts | 215° |
| 2026-05-07 14:41 | 33.18210 | -16.28979 | 14377 ft | 284 kts | 226° |
| 2026-05-07 14:41 | 33.16755 | -16.30607 | 13776 ft | 289 kts | 227° |
| 2026-05-07 14:41 | 33.15310 | -16.32226 | 13516 ft | 280 kts | 227° |
| 2026-05-07 14:42 | 33.13901 | -16.33792 | 13212 ft | 274 kts | 227° |
| 2026-05-07 14:42 | 33.12515 | -16.35337 | 12767 ft | 273 kts | 227° |
| 2026-05-07 14:42 | 33.11140 | -16.36864 | 12334 ft | 272 kts | 226° |
| 2026-05-07 14:42 | 33.09736 | -16.38376 | 11887 ft | 272 kts | 222° |
| 2026-05-07 14:43 | 33.08170 | -16.39657 | 11470 ft | 273 kts | 216° |
| 2026-05-07 14:43 | 33.06566 | -16.40851 | 11117 ft | 269 kts | 216° |
| 2026-05-07 14:43 | 33.05005 | -16.42012 | 10930 ft | 258 kts | 216° |
| 2026-05-07 14:43 | 33.03518 | -16.43124 | 10787 ft | 246 kts | 216° |
| 2026-05-07 14:44 | 33.02103 | -16.44183 | 10587 ft | 237 kts | 217° |
| 2026-05-07 14:44 | 33.00722 | -16.45221 | 10250 ft | 233 kts | 217° |
| 2026-05-07 14:44 | 32.99365 | -16.46252 | 9880 ft | 231 kts | 217° |
| 2026-05-07 14:44 | 32.98016 | -16.47278 | 9443 ft | 230 kts | 217° |
| 2026-05-07 14:45 | 32.96665 | -16.48304 | 8997 ft | 230 kts | 217° |
| 2026-05-07 14:45 | 32.95307 | -16.49328 | 8558 ft | 231 kts | 216° |
| 2026-05-07 14:45 | 32.93954 | -16.50348 | 8137 ft | 231 kts | 216° |
| 2026-05-07 14:45 | 32.92621 | -16.51419 | 7709 ft | 230 kts | 222° |
| 2026-05-07 14:46 | 32.91416 | -16.52658 | 7294 ft | 229 kts | 225° |
| 2026-05-07 14:46 | 32.90236 | -16.53930 | 6886 ft | 229 kts | 225° |
| 2026-05-07 14:46 | 32.89056 | -16.55200 | 6527 ft | 227 kts | 225° |
| 2026-05-07 14:46 | 32.87905 | -16.56434 | 6299 ft | 218 kts | 225° |
| 2026-05-07 14:47 | 32.86790 | -16.57624 | 5972 ft | 212 kts | 225° |
| 2026-05-07 14:47 | 32.85788 | -16.58830 | 5702 ft | 198 kts | 237° |
| 2026-05-07 14:47 | 32.85331 | -16.60300 | 5436 ft | 186 kts | 263° |
| 2026-05-07 14:47 | 32.85271 | -16.61811 | 5128 ft | 181 kts | 267° |
| 2026-05-07 14:48 | 32.85176 | -16.63303 | 4818 ft | 184 kts | 261° |
| 2026-05-07 14:48 | 32.84602 | -16.64642 | 4426 ft | 184 kts | 227° |
| 2026-05-07 14:48 | 32.83518 | -16.65436 | 4068 ft | 184 kts | 206° |
| 2026-05-07 14:48 | 32.82359 | -16.66087 | 3697 ft | 184 kts | 207° |
| 2026-05-07 14:49 | 32.81201 | -16.66755 | 3297 ft | 186 kts | 207° |
| 2026-05-07 14:49 | 32.80030 | -16.67438 | 2875 ft | 188 kts | 207° |
| 2026-05-07 14:49 | 32.78859 | -16.68131 | 2449 ft | 188 kts | 207° |
| 2026-05-07 14:49 | 32.77709 | -16.68818 | 2021 ft | 182 kts | 207° |
| 2026-05-07 14:50 | 32.76595 | -16.69491 | 1582 ft | 178 kts | 207° |
| 2026-05-07 14:50 | 32.75498 | -16.70160 | 1158 ft | 176 kts | 207° |
| 2026-05-07 14:50 | 32.74455 | -16.70803 | 919 ft | 163 kts | 207° |
| 2026-05-07 14:50 | 32.73540 | -16.71374 | 924 ft | 139 kts | 207° |
| 2026-05-07 14:51 | 32.72677 | -16.71918 | 965 ft | 138 kts | 208° |
| 2026-05-07 14:51 | 32.71842 | -16.72449 | 1028 ft | 138 kts | 208° |
| 2026-05-07 14:51 | 32.71001 | -16.72995 | 1081 ft | 137 kts | 209° |
| 2026-05-07 14:51 | 32.70173 | -16.73552 | 1131 ft | 137 kts | 209° |
| 2026-05-07 14:52 | 32.69312 | -16.74036 | 1193 ft | 137 kts | 203° |
| 2026-05-07 14:52 | 32.68433 | -16.74460 | 1232 ft | 137 kts | 202° |
| 2026-05-07 14:52 | 32.67546 | -16.74870 | 1191 ft | 136 kts | 201° |
| 2026-05-07 14:52 | 32.66666 | -16.75280 | 1096 ft | 136 kts | 201° |
| 2026-05-07 14:53 | 32.65783 | -16.75692 | 1012 ft | 136 kts | 202° |
| 2026-05-07 14:53 | 32.64947 | -16.76222 | 929 ft | 137 kts | 214° |
| 2026-05-07 14:53 | 32.64266 | -16.77007 | 835 ft | 138 kts | 231° |
| 2026-05-07 14:53 | 32.63881 | -16.78037 | 783 ft | 139 kts | 260° |
| 2026-05-07 14:54 | 32.63982 | -16.79164 | 788 ft | 140 kts | 292° |
| 2026-05-07 14:54 | 32.64663 | -16.79955 | 787 ft | 141 kts | 333° |
| 2026-05-07 14:54 | 32.65610 | -16.80235 | 655 ft | 140 kts | 355° |
| 2026-05-07 14:54 | 32.66574 | -16.80114 | 555 ft | 140 kts | 14° |
| 2026-05-07 14:55 | 32.67492 | -16.79738 | 507 ft | 140 kts | 24° |
| 2026-05-07 14:55 | 32.68324 | -16.79159 | 382 ft | 139 kts | 39° |
| 2026-05-07 14:55 | 32.69009 | -16.78352 | 214 ft | 138 kts | 46° |
| 2026-05-07 14:55 | 32.69636 | -16.77629 | 179 ft | 93 kts | 46° |
| 2026-05-07 14:56 | 32.69898 | -16.77316 | 182 ft | 32 kts | 45° |
| 2026-05-07 14:56 | 32.69977 | -16.77212 | 186 ft | 8 kts | 58° |
| 2026-05-07 14:56 | 32.69929 | -16.77179 | 183 ft | 10 kts | 179° |
| 2026-05-07 14:56 | 32.69854 | -16.77181 | 181 ft | 12 kts | 191° |
| 2026-05-07 14:57 | 32.69788 | -16.77241 | 177 ft | 13 kts | 223° |
| 2026-05-07 14:57 | 32.69725 | -16.77320 | 172 ft | 13 kts | 226° |
| 2026-05-07 14:57 | 32.69657 | -16.77404 | 176 ft | 15 kts | 226° |
| 2026-05-07 14:57 | 32.69611 | -16.77461 | 179 ft | 9 kts | 226° |
| 2026-05-07 14:58 | 32.69561 | -16.77522 | 179 ft | 11 kts | 226° |
| 2026-05-07 14:58 | 32.69498 | -16.77594 | 178 ft | 13 kts | 205° |
| 2026-05-07 14:58 | 32.69449 | -16.77564 | 180 ft | 6 kts | 137° |
| 2026-05-07 14:58 | 32.69442 | -16.77557 | 180 ft | 0 kts | 139° |